sensor_id;sensor_type;location;lat;lon;timestamp;P1;durP1;ratioP1;P2;durP2;ratioP2
20653;SDS011;21083;50.898;4.902;2023-10-08T00:01:49;9.27;;;2.78;;
20653;SDS011;21083;50.898;4.902;2023-10-08T00:04:16;11.88;;;3.08;;
20653;SDS011;21083;50.898;4.902;2023-10-08T00:06:44;13.13;;;4.00;;
20653;SDS011;21083;50.898;4.902;2023-10-08T00:09:11;7.95;;;3.15;;
20653;SDS011;21083;50.898;4.902;2023-10-08T00:11:40;13.73;;;3.30;;
20653;SDS011;21083;50.898;4.902;2023-10-08T00:14:08;9.82;;;2.78;;
20653;SDS011;21083;50.898;4.902;2023-10-08T00:16:37;11.70;;;3.60;;
20653;SDS011;21083;50.898;4.902;2023-10-08T00:19:05;12.18;;;3.28;;
20653;SDS011;21083;50.898;4.902;2023-10-08T00:21:38;13.07;;;3.10;;
20653;SDS011;21083;50.898;4.902;2023-10-08T00:24:06;8.15;;;2.80;;
20653;SDS011;21083;50.898;4.902;2023-10-08T00:26:34;13.38;;;3.60;;
20653;SDS011;21083;50.898;4.902;2023-10-08T00:29:05;9.60;;;3.28;;
20653;SDS011;21083;50.898;4.902;2023-10-08T00:31:42;11.15;;;3.15;;
20653;SDS011;21083;50.898;4.902;2023-10-08T00:34:11;12.65;;;3.85;;
20653;SDS011;21083;50.898;4.902;2023-10-08T00:36:39;8.32;;;2.40;;
20653;SDS011;21083;50.898;4.902;2023-10-08T00:39:07;9.32;;;3.13;;
20653;SDS011;21083;50.898;4.902;2023-10-08T00:41:39;8.35;;;2.78;;
20653;SDS011;21083;50.898;4.902;2023-10-08T00:44:08;11.55;;;2.92;;
20653;SDS011;21083;50.898;4.902;2023-10-08T00:46:37;13.10;;;3.50;;
20653;SDS011;21083;50.898;4.902;2023-10-08T00:49:09;13.32;;;2.70;;
20653;SDS011;21083;50.898;4.902;2023-10-08T00:51:53;11.38;;;3.08;;
20653;SDS011;21083;50.898;4.902;2023-10-08T00:54:50;10.57;;;2.63;;
20653;SDS011;21083;50.898;4.902;2023-10-08T00:57:32;13.48;;;2.90;;
20653;SDS011;21083;50.898;4.902;2023-10-08T01:00:02;11.80;;;3.13;;
20653;SDS011;21083;50.898;4.902;2023-10-08T01:02:40;11.32;;;3.40;;
20653;SDS011;21083;50.898;4.902;2023-10-08T01:05:13;9.55;;;2.67;;
20653;SDS011;21083;50.898;4.902;2023-10-08T01:07:44;12.50;;;3.22;;
20653;SDS011;21083;50.898;4.902;2023-10-08T01:10:14;11.32;;;2.95;;
20653;SDS011;21083;50.898;4.902;2023-10-08T01:12:45;10.88;;;2.95;;
20653;SDS011;21083;50.898;4.902;2023-10-08T01:15:29;12.40;;;3.05;;
20653;SDS011;21083;50.898;4.902;2023-10-08T01:18:01;9.15;;;2.72;;
20653;SDS011;21083;50.898;4.902;2023-10-08T01:20:31;10.85;;;2.97;;
20653;SDS011;21083;50.898;4.902;2023-10-08T01:23:05;14.80;;;3.55;;
20653;SDS011;21083;50.898;4.902;2023-10-08T01:25:38;15.93;;;3.40;;
20653;SDS011;21083;50.898;4.902;2023-10-08T01:28:07;10.82;;;3.22;;
20653;SDS011;21083;50.898;4.902;2023-10-08T01:30:40;8.48;;;2.90;;
20653;SDS011;21083;50.898;4.902;2023-10-08T01:33:12;11.95;;;3.13;;
20653;SDS011;21083;50.898;4.902;2023-10-08T01:35:41;10.07;;;3.17;;
20653;SDS011;21083;50.898;4.902;2023-10-08T01:38:09;9.75;;;2.70;;
20653;SDS011;21083;50.898;4.902;2023-10-08T01:40:39;9.52;;;3.03;;
20653;SDS011;21083;50.898;4.902;2023-10-08T01:43:07;10.35;;;3.28;;
20653;SDS011;21083;50.898;4.902;2023-10-08T01:45:37;10.98;;;3.28;;
20653;SDS011;21083;50.898;4.902;2023-10-08T01:48:08;10.65;;;3.08;;
20653;SDS011;21083;50.898;4.902;2023-10-08T01:50:36;10.23;;;3.00;;
20653;SDS011;21083;50.898;4.902;2023-10-08T01:53:03;8.75;;;2.90;;
20653;SDS011;21083;50.898;4.902;2023-10-08T01:55:35;9.63;;;2.80;;
20653;SDS011;21083;50.898;4.902;2023-10-08T01:58:15;12.30;;;2.55;;
20653;SDS011;21083;50.898;4.902;2023-10-08T02:00:43;9.63;;;2.55;;
20653;SDS011;21083;50.898;4.902;2023-10-08T02:03:11;12.55;;;3.33;;
20653;SDS011;21083;50.898;4.902;2023-10-08T02:05:41;8.80;;;2.90;;
20653;SDS011;21083;50.898;4.902;2023-10-08T02:08:09;9.90;;;3.33;;
20653;SDS011;21083;50.898;4.902;2023-10-08T02:10:38;10.98;;;3.42;;
20653;SDS011;21083;50.898;4.902;2023-10-08T02:13:05;14.77;;;3.25;;
20653;SDS011;21083;50.898;4.902;2023-10-08T02:15:34;19.23;;;3.67;;
20653;SDS011;21083;50.898;4.902;2023-10-08T02:18:04;13.25;;;3.40;;
20653;SDS011;21083;50.898;4.902;2023-10-08T02:20:32;8.75;;;2.63;;
20653;SDS011;21083;50.898;4.902;2023-10-08T02:22:59;13.35;;;2.97;;
20653;SDS011;21083;50.898;4.902;2023-10-08T02:25:26;9.32;;;2.90;;
20653;SDS011;21083;50.898;4.902;2023-10-08T02:27:55;10.27;;;2.90;;
20653;SDS011;21083;50.898;4.902;2023-10-08T02:30:22;8.48;;;2.78;;
20653;SDS011;21083;50.898;4.902;2023-10-08T02:32:49;10.13;;;3.08;;
20653;SDS011;21083;50.898;4.902;2023-10-08T02:35:17;10.13;;;3.40;;
20653;SDS011;21083;50.898;4.902;2023-10-08T02:37:44;9.43;;;3.30;;
20653;SDS011;21083;50.898;4.902;2023-10-08T02:40:11;11.98;;;2.80;;
20653;SDS011;21083;50.898;4.902;2023-10-08T02:42:46;9.20;;;3.70;;
20653;SDS011;21083;50.898;4.902;2023-10-08T02:45:15;12.65;;;3.03;;
20653;SDS011;21083;50.898;4.902;2023-10-08T02:47:43;9.18;;;2.85;;
20653;SDS011;21083;50.898;4.902;2023-10-08T02:50:11;10.93;;;3.55;;
20653;SDS011;21083;50.898;4.902;2023-10-08T02:52:42;10.48;;;3.03;;
20653;SDS011;21083;50.898;4.902;2023-10-08T02:55:11;10.05;;;3.15;;
20653;SDS011;21083;50.898;4.902;2023-10-08T02:57:50;14.02;;;3.42;;
20653;SDS011;21083;50.898;4.902;2023-10-08T03:00:19;12.15;;;2.95;;
20653;SDS011;21083;50.898;4.902;2023-10-08T03:02:46;11.45;;;3.50;;
20653;SDS011;21083;50.898;4.902;2023-10-08T03:05:14;12.43;;;3.22;;
20653;SDS011;21083;50.898;4.902;2023-10-08T03:07:44;9.18;;;3.10;;
20653;SDS011;21083;50.898;4.902;2023-10-08T03:10:12;18.52;;;2.95;;
20653;SDS011;21083;50.898;4.902;2023-10-08T03:12:44;11.98;;;3.90;;
20653;SDS011;21083;50.898;4.902;2023-10-08T03:15:12;11.18;;;3.63;;
20653;SDS011;21083;50.898;4.902;2023-10-08T03:17:54;10.93;;;3.03;;
20653;SDS011;21083;50.898;4.902;2023-10-08T03:20:22;15.65;;;3.15;;
20653;SDS011;21083;50.898;4.902;2023-10-08T03:23:03;13.05;;;3.58;;
20653;SDS011;21083;50.898;4.902;2023-10-08T03:25:38;13.25;;;3.85;;
20653;SDS011;21083;50.898;4.902;2023-10-08T03:28:07;12.55;;;3.22;;
20653;SDS011;21083;50.898;4.902;2023-10-08T03:30:38;11.55;;;3.10;;
20653;SDS011;21083;50.898;4.902;2023-10-08T03:33:16;10.00;;;3.10;;
20653;SDS011;21083;50.898;4.902;2023-10-08T03:35:48;13.55;;;3.20;;
20653;SDS011;21083;50.898;4.902;2023-10-08T03:38:18;12.50;;;3.22;;
20653;SDS011;21083;50.898;4.902;2023-10-08T03:40:53;12.38;;;4.05;;
20653;SDS011;21083;50.898;4.902;2023-10-08T03:43:29;14.75;;;3.53;;
20653;SDS011;21083;50.898;4.902;2023-10-08T03:46:08;11.20;;;3.30;;
20653;SDS011;21083;50.898;4.902;2023-10-08T03:48:42;11.88;;;3.15;;
20653;SDS011;21083;50.898;4.902;2023-10-08T03:51:10;12.77;;;3.45;;
20653;SDS011;21083;50.898;4.902;2023-10-08T03:53:38;11.02;;;3.28;;
20653;SDS011;21083;50.898;4.902;2023-10-08T03:56:23;10.15;;;3.10;;
20653;SDS011;21083;50.898;4.902;2023-10-08T03:58:51;9.90;;;3.13;;
20653;SDS011;21083;50.898;4.902;2023-10-08T04:01:20;10.98;;;3.53;;
20653;SDS011;21083;50.898;4.902;2023-10-08T04:03:50;14.50;;;3.47;;
20653;SDS011;21083;50.898;4.902;2023-10-08T04:06:27;12.25;;;3.63;;
20653;SDS011;21083;50.898;4.902;2023-10-08T04:09:03;16.05;;;3.72;;
20653;SDS011;21083;50.898;4.902;2023-10-08T04:11:45;11.32;;;3.10;;
20653;SDS011;21083;50.898;4.902;2023-10-08T04:14:19;11.60;;;3.47;;
20653;SDS011;21083;50.898;4.902;2023-10-08T04:16:46;10.07;;;2.88;;
20653;SDS011;21083;50.898;4.902;2023-10-08T04:19:18;10.90;;;3.58;;
20653;SDS011;21083;50.898;4.902;2023-10-08T04:21:46;11.98;;;3.58;;
20653;SDS011;21083;50.898;4.902;2023-10-08T04:24:19;14.95;;;3.80;;
20653;SDS011;21083;50.898;4.902;2023-10-08T04:26:53;9.27;;;3.50;;
20653;SDS011;21083;50.898;4.902;2023-10-08T04:29:22;8.85;;;3.08;;
20653;SDS011;21083;50.898;4.902;2023-10-08T04:31:50;9.40;;;3.08;;
20653;SDS011;21083;50.898;4.902;2023-10-08T04:34:28;12.55;;;3.45;;
20653;SDS011;21083;50.898;4.902;2023-10-08T04:36:58;13.77;;;3.42;;
20653;SDS011;21083;50.898;4.902;2023-10-08T04:39:28;10.63;;;3.72;;
20653;SDS011;21083;50.898;4.902;2023-10-08T04:41:58;11.85;;;3.65;;
20653;SDS011;21083;50.898;4.902;2023-10-08T04:44:31;11.18;;;3.72;;
20653;SDS011;21083;50.898;4.902;2023-10-08T04:46:58;9.93;;;3.47;;
20653;SDS011;21083;50.898;4.902;2023-10-08T04:49:33;14.85;;;4.20;;
20653;SDS011;21083;50.898;4.902;2023-10-08T04:52:03;9.77;;;2.88;;
20653;SDS011;21083;50.898;4.902;2023-10-08T04:54:34;11.40;;;3.20;;
20653;SDS011;21083;50.898;4.902;2023-10-08T04:57:05;11.30;;;3.20;;
20653;SDS011;21083;50.898;4.902;2023-10-08T04:59:40;11.90;;;3.72;;
20653;SDS011;21083;50.898;4.902;2023-10-08T05:02:08;9.75;;;2.90;;
20653;SDS011;21083;50.898;4.902;2023-10-08T05:04:46;10.57;;;3.78;;
20653;SDS011;21083;50.898;4.902;2023-10-08T05:07:32;13.48;;;3.45;;
20653;SDS011;21083;50.898;4.902;2023-10-08T05:10:21;9.00;;;3.30;;
20653;SDS011;21083;50.898;4.902;2023-10-08T05:13:10;12.30;;;3.65;;
20653;SDS011;21083;50.898;4.902;2023-10-08T05:15:42;11.45;;;3.75;;
20653;SDS011;21083;50.898;4.902;2023-10-08T05:18:28;10.23;;;3.30;;
20653;SDS011;21083;50.898;4.902;2023-10-08T05:21:20;14.68;;;4.20;;
20653;SDS011;21083;50.898;4.902;2023-10-08T05:23:53;10.18;;;3.28;;
20653;SDS011;21083;50.898;4.902;2023-10-08T05:26:34;15.27;;;3.10;;
20653;SDS011;21083;50.898;4.902;2023-10-08T05:29:10;12.77;;;3.85;;
20653;SDS011;21083;50.898;4.902;2023-10-08T05:32:14;14.93;;;4.10;;
20653;SDS011;21083;50.898;4.902;2023-10-08T05:35:09;11.27;;;3.78;;
20653;SDS011;21083;50.898;4.902;2023-10-08T05:37:55;12.02;;;2.92;;
20653;SDS011;21083;50.898;4.902;2023-10-08T05:40:38;10.07;;;3.50;;
20653;SDS011;21083;50.898;4.902;2023-10-08T05:43:30;11.40;;;3.53;;
20653;SDS011;21083;50.898;4.902;2023-10-08T05:46:21;9.57;;;3.50;;
20653;SDS011;21083;50.898;4.902;2023-10-08T05:49:12;10.82;;;3.30;;
20653;SDS011;21083;50.898;4.902;2023-10-08T05:51:51;10.45;;;3.25;;
20653;SDS011;21083;50.898;4.902;2023-10-08T05:54:37;10.95;;;3.60;;
20653;SDS011;21083;50.898;4.902;2023-10-08T05:57:22;10.02;;;3.45;;
20653;SDS011;21083;50.898;4.902;2023-10-08T06:00:04;15.05;;;3.88;;
20653;SDS011;21083;50.898;4.902;2023-10-08T06:03:07;11.82;;;3.70;;
20653;SDS011;21083;50.898;4.902;2023-10-08T06:05:46;9.40;;;3.15;;
20653;SDS011;21083;50.898;4.902;2023-10-08T06:08:29;12.10;;;3.38;;
20653;SDS011;21083;50.898;4.902;2023-10-08T06:11:15;9.07;;;3.25;;
20653;SDS011;21083;50.898;4.902;2023-10-08T06:13:53;11.52;;;3.95;;
20653;SDS011;21083;50.898;4.902;2023-10-08T06:16:25;13.38;;;3.47;;
20653;SDS011;21083;50.898;4.902;2023-10-08T06:19:26;12.00;;;3.78;;
20653;SDS011;21083;50.898;4.902;2023-10-08T06:21:53;9.40;;;3.13;;
20653;SDS011;21083;50.898;4.902;2023-10-08T06:24:20;8.52;;;3.47;;
20653;SDS011;21083;50.898;4.902;2023-10-08T06:26:47;12.23;;;3.50;;
20653;SDS011;21083;50.898;4.902;2023-10-08T06:29:14;11.98;;;3.45;;
20653;SDS011;21083;50.898;4.902;2023-10-08T06:31:52;10.02;;;3.72;;
20653;SDS011;21083;50.898;4.902;2023-10-08T06:34:20;10.63;;;3.95;;
20653;SDS011;21083;50.898;4.902;2023-10-08T06:36:51;9.27;;;3.17;;
20653;SDS011;21083;50.898;4.902;2023-10-08T06:39:19;13.52;;;3.72;;
20653;SDS011;21083;50.898;4.902;2023-10-08T06:41:51;13.65;;;3.92;;
20653;SDS011;21083;50.898;4.902;2023-10-08T06:44:19;10.98;;;3.58;;
20653;SDS011;21083;50.898;4.902;2023-10-08T06:46:47;15.82;;;4.85;;
20653;SDS011;21083;50.898;4.902;2023-10-08T06:49:18;12.10;;;4.15;;
20653;SDS011;21083;50.898;4.902;2023-10-08T06:51:49;10.57;;;3.95;;
20653;SDS011;21083;50.898;4.902;2023-10-08T06:54:19;10.75;;;3.55;;
20653;SDS011;21083;50.898;4.902;2023-10-08T06:56:47;10.57;;;3.25;;
20653;SDS011;21083;50.898;4.902;2023-10-08T06:59:17;11.85;;;3.35;;
20653;SDS011;21083;50.898;4.902;2023-10-08T07:01:44;14.25;;;4.20;;
20653;SDS011;21083;50.898;4.902;2023-10-08T07:04:12;10.15;;;3.70;;
20653;SDS011;21083;50.898;4.902;2023-10-08T07:06:39;12.15;;;4.15;;
20653;SDS011;21083;50.898;4.902;2023-10-08T07:09:09;9.35;;;3.25;;
20653;SDS011;21083;50.898;4.902;2023-10-08T07:11:48;20.02;;;4.45;;
20653;SDS011;21083;50.898;4.902;2023-10-08T07:14:20;14.35;;;4.00;;
20653;SDS011;21083;50.898;4.902;2023-10-08T07:16:48;14.20;;;3.97;;
20653;SDS011;21083;50.898;4.902;2023-10-08T07:19:17;12.38;;;3.67;;
20653;SDS011;21083;50.898;4.902;2023-10-08T07:21:45;13.23;;;3.60;;
20653;SDS011;21083;50.898;4.902;2023-10-08T07:24:14;13.23;;;3.85;;
20653;SDS011;21083;50.898;4.902;2023-10-08T07:26:43;10.70;;;3.90;;
20653;SDS011;21083;50.898;4.902;2023-10-08T07:29:12;13.80;;;4.20;;
20653;SDS011;21083;50.898;4.902;2023-10-08T07:31:42;13.23;;;3.50;;
20653;SDS011;21083;50.898;4.902;2023-10-08T07:34:14;13.35;;;4.03;;
20653;SDS011;21083;50.898;4.902;2023-10-08T07:36:51;14.55;;;4.03;;
20653;SDS011;21083;50.898;4.902;2023-10-08T07:39:21;12.00;;;3.92;;
20653;SDS011;21083;50.898;4.902;2023-10-08T07:41:52;11.65;;;3.80;;
20653;SDS011;21083;50.898;4.902;2023-10-08T07:44:20;15.10;;;3.97;;
20653;SDS011;21083;50.898;4.902;2023-10-08T07:46:48;11.75;;;3.72;;
20653;SDS011;21083;50.898;4.902;2023-10-08T07:49:16;11.68;;;3.80;;
20653;SDS011;21083;50.898;4.902;2023-10-08T07:51:43;13.57;;;4.45;;
20653;SDS011;21083;50.898;4.902;2023-10-08T07:54:16;11.80;;;3.60;;
20653;SDS011;21083;50.898;4.902;2023-10-08T07:56:46;12.32;;;3.90;;
20653;SDS011;21083;50.898;4.902;2023-10-08T07:59:14;12.27;;;3.67;;
20653;SDS011;21083;50.898;4.902;2023-10-08T08:01:42;12.55;;;3.80;;
20653;SDS011;21083;50.898;4.902;2023-10-08T08:04:09;12.65;;;4.20;;
20653;SDS011;21083;50.898;4.902;2023-10-08T08:06:40;12.38;;;4.45;;
20653;SDS011;21083;50.898;4.902;2023-10-08T08:09:07;10.52;;;3.80;;
20653;SDS011;21083;50.898;4.902;2023-10-08T08:11:43;12.05;;;3.92;;
20653;SDS011;21083;50.898;4.902;2023-10-08T08:14:13;15.98;;;4.80;;
20653;SDS011;21083;50.898;4.902;2023-10-08T08:16:43;15.57;;;4.80;;
20653;SDS011;21083;50.898;4.902;2023-10-08T08:19:13;15.20;;;3.75;;
20653;SDS011;21083;50.898;4.902;2023-10-08T08:21:42;12.00;;;4.18;;
20653;SDS011;21083;50.898;4.902;2023-10-08T08:24:11;13.00;;;4.40;;
20653;SDS011;21083;50.898;4.902;2023-10-08T08:26:39;15.60;;;4.60;;
20653;SDS011;21083;50.898;4.902;2023-10-08T08:29:24;12.77;;;4.90;;
20653;SDS011;21083;50.898;4.902;2023-10-08T08:31:51;17.38;;;4.72;;
20653;SDS011;21083;50.898;4.902;2023-10-08T08:34:18;13.15;;;4.50;;
20653;SDS011;21083;50.898;4.902;2023-10-08T08:36:46;20.52;;;5.15;;
20653;SDS011;21083;50.898;4.902;2023-10-08T08:39:14;12.38;;;4.45;;
20653;SDS011;21083;50.898;4.902;2023-10-08T08:41:55;12.98;;;4.32;;
20653;SDS011;21083;50.898;4.902;2023-10-08T08:44:29;13.95;;;4.78;;
20653;SDS011;21083;50.898;4.902;2023-10-08T08:46:59;14.70;;;5.07;;
20653;SDS011;21083;50.898;4.902;2023-10-08T08:49:29;18.30;;;5.22;;
20653;SDS011;21083;50.898;4.902;2023-10-08T08:51:59;16.90;;;4.97;;
20653;SDS011;21083;50.898;4.902;2023-10-08T08:54:27;15.95;;;5.20;;
20653;SDS011;21083;50.898;4.902;2023-10-08T08:56:55;14.20;;;5.47;;
20653;SDS011;21083;50.898;4.902;2023-10-08T08:59:25;14.90;;;4.88;;
20653;SDS011;21083;50.898;4.902;2023-10-08T09:01:57;23.27;;;5.80;;
20653;SDS011;21083;50.898;4.902;2023-10-08T09:04:28;16.55;;;5.72;;
20653;SDS011;21083;50.898;4.902;2023-10-08T09:06:58;19.67;;;5.55;;
20653;SDS011;21083;50.898;4.902;2023-10-08T09:09:32;15.93;;;5.68;;
20653;SDS011;21083;50.898;4.902;2023-10-08T09:12:00;19.60;;;5.75;;
20653;SDS011;21083;50.898;4.902;2023-10-08T09:14:30;20.88;;;6.22;;
20653;SDS011;21083;50.898;4.902;2023-10-08T09:17:00;18.80;;;5.38;;
20653;SDS011;21083;50.898;4.902;2023-10-08T09:19:29;20.77;;;5.45;;
20653;SDS011;21083;50.898;4.902;2023-10-08T09:22:00;19.27;;;5.93;;
20653;SDS011;21083;50.898;4.902;2023-10-08T09:24:29;13.80;;;6.13;;
20653;SDS011;21083;50.898;4.902;2023-10-08T09:26:59;15.95;;;5.72;;
20653;SDS011;21083;50.898;4.902;2023-10-08T09:29:28;20.00;;;5.95;;
20653;SDS011;21083;50.898;4.902;2023-10-08T09:31:55;21.67;;;6.68;;
20653;SDS011;21083;50.898;4.902;2023-10-08T09:34:27;24.73;;;7.32;;
20653;SDS011;21083;50.898;4.902;2023-10-08T09:36:55;20.60;;;6.22;;
20653;SDS011;21083;50.898;4.902;2023-10-08T09:39:25;17.58;;;5.57;;
20653;SDS011;21083;50.898;4.902;2023-10-08T09:41:54;20.77;;;5.93;;
20653;SDS011;21083;50.898;4.902;2023-10-08T09:44:22;17.92;;;5.47;;
20653;SDS011;21083;50.898;4.902;2023-10-08T09:46:52;19.67;;;6.45;;
20653;SDS011;21083;50.898;4.902;2023-10-08T09:49:24;18.55;;;5.43;;
20653;SDS011;21083;50.898;4.902;2023-10-08T09:52:01;17.92;;;6.68;;
20653;SDS011;21083;50.898;4.902;2023-10-08T09:54:31;19.52;;;6.20;;
20653;SDS011;21083;50.898;4.902;2023-10-08T09:57:05;20.00;;;5.70;;
20653;SDS011;21083;50.898;4.902;2023-10-08T09:59:32;15.07;;;5.35;;
20653;SDS011;21083;50.898;4.902;2023-10-08T10:02:00;22.35;;;6.72;;
20653;SDS011;21083;50.898;4.902;2023-10-08T10:04:31;23.65;;;7.07;;
20653;SDS011;21083;50.898;4.902;2023-10-08T10:06:58;21.13;;;6.45;;
20653;SDS011;21083;50.898;4.902;2023-10-08T10:09:33;21.73;;;6.78;;
20653;SDS011;21083;50.898;4.902;2023-10-08T10:12:01;19.52;;;6.40;;
20653;SDS011;21083;50.898;4.902;2023-10-08T10:14:40;22.55;;;6.45;;
20653;SDS011;21083;50.898;4.902;2023-10-08T10:17:08;19.55;;;5.90;;
20653;SDS011;21083;50.898;4.902;2023-10-08T10:19:41;15.25;;;6.25;;
20653;SDS011;21083;50.898;4.902;2023-10-08T10:22:11;22.35;;;6.32;;
20653;SDS011;21083;50.898;4.902;2023-10-08T10:24:41;20.63;;;7.38;;
20653;SDS011;21083;50.898;4.902;2023-10-08T10:27:11;19.08;;;7.28;;
20653;SDS011;21083;50.898;4.902;2023-10-08T10:29:39;29.55;;;8.07;;
20653;SDS011;21083;50.898;4.902;2023-10-08T10:32:10;19.80;;;7.38;;
20653;SDS011;21083;50.898;4.902;2023-10-08T10:34:39;17.35;;;6.57;;
20653;SDS011;21083;50.898;4.902;2023-10-08T10:37:08;17.67;;;7.03;;
20653;SDS011;21083;50.898;4.902;2023-10-08T10:39:50;25.35;;;7.13;;
20653;SDS011;21083;50.898;4.902;2023-10-08T10:42:20;20.25;;;6.35;;
20653;SDS011;21083;50.898;4.902;2023-10-08T10:44:48;21.38;;;6.40;;
20653;SDS011;21083;50.898;4.902;2023-10-08T10:47:16;20.67;;;6.80;;
20653;SDS011;21083;50.898;4.902;2023-10-08T10:49:53;18.63;;;6.55;;
20653;SDS011;21083;50.898;4.902;2023-10-08T10:52:41;22.52;;;7.75;;
20653;SDS011;21083;50.898;4.902;2023-10-08T10:55:11;20.63;;;7.65;;
20653;SDS011;21083;50.898;4.902;2023-10-08T10:57:48;23.02;;;7.15;;
20653;SDS011;21083;50.898;4.902;2023-10-08T11:00:29;19.98;;;7.15;;
20653;SDS011;21083;50.898;4.902;2023-10-08T11:03:22;20.45;;;6.95;;
20653;SDS011;21083;50.898;4.902;2023-10-08T11:05:51;24.20;;;7.43;;
20653;SDS011;21083;50.898;4.902;2023-10-08T11:08:21;22.20;;;6.72;;
20653;SDS011;21083;50.898;4.902;2023-10-08T11:10:49;16.88;;;7.10;;
20653;SDS011;21083;50.898;4.902;2023-10-08T11:13:18;19.33;;;6.50;;
20653;SDS011;21083;50.898;4.902;2023-10-08T11:15:47;15.00;;;6.05;;
20653;SDS011;21083;50.898;4.902;2023-10-08T11:18:17;17.27;;;6.57;;
20653;SDS011;21083;50.898;4.902;2023-10-08T11:20:46;20.98;;;7.05;;
20653;SDS011;21083;50.898;4.902;2023-10-08T11:23:33;21.55;;;6.93;;
20653;SDS011;21083;50.898;4.902;2023-10-08T11:26:03;18.67;;;6.22;;
20653;SDS011;21083;50.898;4.902;2023-10-08T11:28:31;16.25;;;6.13;;
20653;SDS011;21083;50.898;4.902;2023-10-08T11:31:00;25.48;;;6.07;;
20653;SDS011;21083;50.898;4.902;2023-10-08T11:33:33;16.00;;;6.28;;
20653;SDS011;21083;50.898;4.902;2023-10-08T11:36:02;18.77;;;6.72;;
20653;SDS011;21083;50.898;4.902;2023-10-08T11:38:39;18.67;;;5.93;;
20653;SDS011;21083;50.898;4.902;2023-10-08T11:41:10;22.70;;;6.38;;
20653;SDS011;21083;50.898;4.902;2023-10-08T11:43:47;21.55;;;6.25;;
20653;SDS011;21083;50.898;4.902;2023-10-08T11:46:19;17.17;;;6.75;;
20653;SDS011;21083;50.898;4.902;2023-10-08T11:48:47;18.25;;;6.75;;
20653;SDS011;21083;50.898;4.902;2023-10-08T11:51:15;18.80;;;6.35;;
20653;SDS011;21083;50.898;4.902;2023-10-08T11:53:44;15.80;;;5.90;;
20653;SDS011;21083;50.898;4.902;2023-10-08T11:56:11;18.17;;;6.43;;
20653;SDS011;21083;50.898;4.902;2023-10-08T11:58:40;20.63;;;5.82;;
20653;SDS011;21083;50.898;4.902;2023-10-08T12:01:10;17.58;;;5.85;;
20653;SDS011;21083;50.898;4.902;2023-10-08T12:03:41;23.83;;;6.35;;
20653;SDS011;21083;50.898;4.902;2023-10-08T12:06:10;24.10;;;6.43;;
20653;SDS011;21083;50.898;4.902;2023-10-08T12:08:40;18.88;;;5.75;;
20653;SDS011;21083;50.898;4.902;2023-10-08T12:11:12;20.45;;;6.30;;
20653;SDS011;21083;50.898;4.902;2023-10-08T12:13:39;15.18;;;5.65;;
20653;SDS011;21083;50.898;4.902;2023-10-08T12:16:10;15.85;;;5.65;;
20653;SDS011;21083;50.898;4.902;2023-10-08T12:18:43;18.75;;;6.05;;
20653;SDS011;21083;50.898;4.902;2023-10-08T12:21:18;14.50;;;5.43;;
20653;SDS011;21083;50.898;4.902;2023-10-08T12:23:47;14.18;;;6.15;;
20653;SDS011;21083;50.898;4.902;2023-10-08T12:26:16;15.77;;;5.93;;
20653;SDS011;21083;50.898;4.902;2023-10-08T12:28:45;17.55;;;5.97;;
20653;SDS011;21083;50.898;4.902;2023-10-08T12:31:13;16.88;;;6.47;;
20653;SDS011;21083;50.898;4.902;2023-10-08T12:33:42;15.85;;;5.93;;
20653;SDS011;21083;50.898;4.902;2023-10-08T12:36:10;21.00;;;6.13;;
20653;SDS011;21083;50.898;4.902;2023-10-08T12:38:38;18.80;;;5.95;;
20653;SDS011;21083;50.898;4.902;2023-10-08T12:41:06;18.48;;;6.30;;
20653;SDS011;21083;50.898;4.902;2023-10-08T12:43:41;19.20;;;5.90;;
20653;SDS011;21083;50.898;4.902;2023-10-08T12:46:10;18.85;;;5.70;;
20653;SDS011;21083;50.898;4.902;2023-10-08T12:48:43;16.05;;;5.65;;
20653;SDS011;21083;50.898;4.902;2023-10-08T12:51:13;15.25;;;5.90;;
20653;SDS011;21083;50.898;4.902;2023-10-08T12:53:41;21.27;;;6.22;;
20653;SDS011;21083;50.898;4.902;2023-10-08T12:56:15;16.52;;;5.30;;
20653;SDS011;21083;50.898;4.902;2023-10-08T12:58:48;18.42;;;5.20;;
20653;SDS011;21083;50.898;4.902;2023-10-08T13:01:15;14.98;;;5.40;;
20653;SDS011;21083;50.898;4.902;2023-10-08T13:03:43;20.33;;;5.85;;
20653;SDS011;21083;50.898;4.902;2023-10-08T13:06:14;14.98;;;6.20;;
20653;SDS011;21083;50.898;4.902;2023-10-08T13:08:47;16.55;;;5.75;;
20653;SDS011;21083;50.898;4.902;2023-10-08T13:11:17;23.10;;;5.97;;
20653;SDS011;21083;50.898;4.902;2023-10-08T13:13:49;17.63;;;5.70;;
20653;SDS011;21083;50.898;4.902;2023-10-08T13:16:17;13.40;;;5.28;;
20653;SDS011;21083;50.898;4.902;2023-10-08T13:18:46;23.92;;;6.13;;
20653;SDS011;21083;50.898;4.902;2023-10-08T13:21:13;17.50;;;5.70;;
20653;SDS011;21083;50.898;4.902;2023-10-08T13:23:40;17.38;;;6.05;;
20653;SDS011;21083;50.898;4.902;2023-10-08T13:26:08;17.27;;;6.25;;
20653;SDS011;21083;50.898;4.902;2023-10-08T13:28:35;15.05;;;5.80;;
20653;SDS011;21083;50.898;4.902;2023-10-08T13:31:04;18.00;;;5.93;;
20653;SDS011;21083;50.898;4.902;2023-10-08T13:33:36;15.00;;;6.03;;
20653;SDS011;21083;50.898;4.902;2023-10-08T13:36:05;16.92;;;6.03;;
20653;SDS011;21083;50.898;4.902;2023-10-08T13:38:34;20.40;;;6.82;;
20653;SDS011;21083;50.898;4.902;2023-10-08T13:41:02;28.25;;;6.10;;
20653;SDS011;21083;50.898;4.902;2023-10-08T13:43:31;14.65;;;6.22;;
20653;SDS011;21083;50.898;4.902;2023-10-08T13:46:02;15.20;;;5.95;;
20653;SDS011;21083;50.898;4.902;2023-10-08T13:48:32;17.48;;;6.25;;
20653;SDS011;21083;50.898;4.902;2023-10-08T13:51:01;14.73;;;5.55;;
20653;SDS011;21083;50.898;4.902;2023-10-08T13:53:29;14.40;;;6.03;;
20653;SDS011;21083;50.898;4.902;2023-10-08T13:55:57;18.05;;;5.85;;
20653;SDS011;21083;50.898;4.902;2023-10-08T13:58:26;20.85;;;6.78;;
20653;SDS011;21083;50.898;4.902;2023-10-08T14:00:55;17.23;;;6.30;;
20653;SDS011;21083;50.898;4.902;2023-10-08T14:03:26;16.20;;;5.47;;
20653;SDS011;21083;50.898;4.902;2023-10-08T14:05:56;16.80;;;6.00;;
20653;SDS011;21083;50.898;4.902;2023-10-08T14:08:27;15.73;;;5.88;;
20653;SDS011;21083;50.898;4.902;2023-10-08T14:10:55;16.90;;;5.78;;
20653;SDS011;21083;50.898;4.902;2023-10-08T14:13:28;15.88;;;5.80;;
20653;SDS011;21083;50.898;4.902;2023-10-08T14:15:57;16.48;;;6.30;;
20653;SDS011;21083;50.898;4.902;2023-10-08T14:18:24;14.30;;;5.78;;
20653;SDS011;21083;50.898;4.902;2023-10-08T14:20:55;14.55;;;6.30;;
20653;SDS011;21083;50.898;4.902;2023-10-08T14:23:22;16.77;;;6.18;;
20653;SDS011;21083;50.898;4.902;2023-10-08T14:25:50;21.52;;;6.50;;
20653;SDS011;21083;50.898;4.902;2023-10-08T14:28:20;21.88;;;6.32;;
20653;SDS011;21083;50.898;4.902;2023-10-08T14:31:05;17.20;;;5.93;;
20653;SDS011;21083;50.898;4.902;2023-10-08T14:33:33;18.55;;;5.60;;
20653;SDS011;21083;50.898;4.902;2023-10-08T14:36:08;15.43;;;5.60;;
20653;SDS011;21083;50.898;4.902;2023-10-08T14:38:53;17.63;;;6.38;;
20653;SDS011;21083;50.898;4.902;2023-10-08T14:41:38;16.23;;;6.15;;
20653;SDS011;21083;50.898;4.902;2023-10-08T14:44:22;21.48;;;6.72;;
20653;SDS011;21083;50.898;4.902;2023-10-08T14:46:50;15.43;;;6.28;;
20653;SDS011;21083;50.898;4.902;2023-10-08T14:49:19;17.33;;;6.57;;
20653;SDS011;21083;50.898;4.902;2023-10-08T14:51:49;15.00;;;6.78;;
20653;SDS011;21083;50.898;4.902;2023-10-08T14:54:18;17.45;;;6.35;;
20653;SDS011;21083;50.898;4.902;2023-10-08T14:56:46;14.68;;;6.50;;
20653;SDS011;21083;50.898;4.902;2023-10-08T14:59:14;15.02;;;6.32;;
20653;SDS011;21083;50.898;4.902;2023-10-08T15:01:43;21.02;;;6.40;;
20653;SDS011;21083;50.898;4.902;2023-10-08T15:04:12;18.00;;;6.95;;